Time;durP1;ratioP1;P1;durP2;ratioP2;P2;SDS_P1;SDS_P2;PMS_P1;PMS_P2;Temp;Humidity;BMP_temperature;BMP_pressure;BME280_temperature;BME280_humidity;BME280_pressure;Samples;Min_cycle;Max_cycle;Signal;HPM_P1;HPM_P2
2023/10/27 00:01:58;;;;;;;0.77;0.77;;;19.20;72.70;;;;;;6179491;23;20176;-85
2023/10/27 00:04:27;;;;;;;1.13;0.70;;;19.20;72.60;;;;;;6180444;23;20174;-87
2023/10/27 00:06:57;;;;;;;0.57;0.50;;;19.20;72.50;;;;;;6180179;23;20275;-86
2023/10/27 00:09:27;;;;;;;0.57;0.57;;;19.20;72.50;;;;;;6180596;23;20834;-86
2023/10/27 00:11:55;;;;;;;0.33;0.33;;;19.20;72.60;;;;;;6180105;23;20266;-85
2023/10/27 00:14:24;;;;;;;0.77;0.77;;;19.20;72.50;;;;;;6181056;23;20167;-87
2023/10/27 00:16:58;;;;;;;0.40;0.40;;;19.10;72.40;;;;;;6179391;23;20175;-87
2023/10/27 00:19:28;;;;;;;0.30;0.30;;;19.10;72.40;;;;;;6179449;23;20163;-89
2023/10/27 00:21:56;;;;;;;1.37;1.27;;;19.10;72.40;;;;;;6180467;23;20508;-87
2023/10/27 00:24:26;;;;;;;0.50;0.50;;;19.10;72.50;;;;;;6177522;23;20250;-86
2023/10/27 00:26:55;;;;;;;0.73;0.30;;;19.10;72.30;;;;;;6174939;23;20187;-86
2023/10/27 00:29:25;;;;;;;0.30;0.30;;;19.10;72.30;;;;;;6177385;23;20195;-87
2023/10/27 00:31:56;;;;;;;0.40;0.40;;;19.00;72.30;;;;;;6178330;23;20168;-87
2023/10/27 00:34:25;;;;;;;0.40;0.40;;;19.00;72.30;;;;;;6180110;23;20164;-88
2023/10/27 00:36:54;;;;;;;0.40;0.40;;;19.00;72.30;;;;;;6178471;23;20206;-87
2023/10/27 00:39:23;;;;;;;0.40;0.40;;;19.00;72.60;;;;;;6179130;23;20175;-86
2023/10/27 00:41:52;;;;;;;2.00;1.00;;;19.00;72.70;;;;;;6181687;23;20174;-86
2023/10/27 00:44:21;;;;;;;0.50;0.50;;;18.90;72.70;;;;;;6183280;23;20164;-86
2023/10/27 00:46:50;;;;;;;0.30;0.30;;;18.90;72.70;;;;;;6194655;23;20176;-88
2023/10/27 00:49:21;;;;;;;0.30;0.30;;;18.90;72.60;;;;;;6194784;23;20196;-87
2023/10/27 00:51:50;;;;;;;0.90;0.90;;;18.90;72.60;;;;;;6196210;23;20191;-87
2023/10/27 00:54:21;;;;;;;4.73;1.07;;;18.90;72.60;;;;;;6197665;23;20199;-88
2023/10/27 00:56:55;;;;;;;0.40;0.40;;;18.90;72.70;;;;;;6193511;23;20183;-88
2023/10/27 00:59:24;;;;;;;1.17;0.73;;;18.80;73.10;;;;;;6189607;23;20175;-88
2023/10/27 01:02:03;;;;;;;0.20;0.20;;;18.80;73.20;;;;;;6190613;23;20199;-88
2023/10/27 01:04:36;;;;;;;7.30;0.53;;;18.80;73.30;;;;;;6191529;23;20202;-89
2023/10/27 01:07:08;;;;;;;0.20;0.20;;;18.70;73.60;;;;;;6188950;23;20204;-88
2023/10/27 01:09:42;;;;;;;0.73;0.60;;;18.70;74.30;;;;;;6184553;23;20168;-87
2023/10/27 01:12:11;;;;;;;0.70;0.57;;;18.70;73.30;;;;;;6184688;23;20189;-87
2023/10/27 01:14:40;;;;;;;3.20;0.60;;;18.70;73.40;;;;;;6183072;23;20172;-87
2023/10/27 01:17:10;;;;;;;0.77;0.63;;;18.60;73.40;;;;;;6181516;23;20657;-86
2023/10/27 01:19:46;;;;;;;0.30;0.30;;;18.60;73.60;;;;;;6182904;23;20251;-87
2023/10/27 01:22:16;;;;;;;0.50;0.50;;;18.60;73.60;;;;;;6180746;23;20221;-85
2023/10/27 01:24:48;;;;;;;0.93;0.80;;;18.60;73.70;;;;;;6181808;23;20168;-85
2023/10/27 01:27:18;;;;;;;7.60;0.60;;;18.60;73.80;;;;;;6181900;23;20234;-86
2023/10/27 01:29:46;;;;;;;1.17;0.87;;;18.50;74.00;;;;;;6181303;23;20179;-87
2023/10/27 01:32:16;;;;;;;0.30;0.30;;;18.50;74.00;;;;;;6179206;23;20931;-88
2023/10/27 01:34:44;;;;;;;0.53;0.53;;;18.50;74.10;;;;;;6180485;23;20720;-88
2023/10/27 01:37:13;;;;;;;1.03;0.87;;;18.50;74.20;;;;;;6183463;23;20203;-86
2023/10/27 01:39:44;;;;;;;1.57;1.40;;;18.50;74.30;;;;;;6179490;23;20187;-85
2023/10/27 01:42:16;;;;;;;0.50;0.50;;;18.40;74.20;;;;;;6179324;23;20168;-85
2023/10/27 01:44:46;;;;;;;1.60;1.00;;;18.40;74.20;;;;;;6179907;23;20259;-86
2023/10/27 01:47:15;;;;;;;0.60;0.60;;;18.40;74.10;;;;;;6180199;23;20248;-87
2023/10/27 01:49:43;;;;;;;0.30;0.30;;;18.40;74.10;;;;;;6179250;23;20164;-87
2023/10/27 01:52:12;;;;;;;0.77;0.50;;;18.40;74.10;;;;;;6178811;23;20175;-88
2023/10/27 01:54:41;;;;;;;0.50;0.50;;;18.40;74.20;;;;;;6179625;23;20673;-87
2023/10/27 01:57:10;;;;;;;0.43;0.43;;;18.50;74.10;;;;;;6181081;23;20164;-88
2023/10/27 01:59:40;;;;;;;1.97;1.57;;;18.40;74.40;;;;;;6180589;23;20168;-87
2023/10/27 02:02:13;;;;;;;1.77;1.63;;;18.40;74.50;;;;;;6182156;23;20168;-87
2023/10/27 02:04:42;;;;;;;2.70;1.10;;;18.40;74.40;;;;;;6182768;23;20575;-85
2023/10/27 02:07:11;;;;;;;0.70;0.70;;;18.40;74.40;;;;;;6181130;23;20235;-87
2023/10/27 02:09:41;;;;;;;1.60;1.03;;;18.40;74.30;;;;;;6182222;23;20167;-87
2023/10/27 02:12:10;;;;;;;0.60;0.60;;;18.30;74.30;;;;;;6181219;23;20176;-87
2023/10/27 02:14:40;;;;;;;0.93;0.93;;;18.40;74.40;;;;;;6179017;23;20192;-86
2023/10/27 02:17:08;;;;;;;0.60;0.60;;;18.30;74.40;;;;;;6179175;23;20172;-85
2023/10/27 02:19:37;;;;;;;0.90;0.60;;;18.30;74.30;;;;;;6178327;23;20163;-85
2023/10/27 02:22:06;;;;;;;0.53;0.53;;;18.30;74.30;;;;;;6178656;23;20178;-86
2023/10/27 02:24:34;;;;;;;0.67;0.67;;;18.30;74.40;;;;;;6180517;23;20176;-87
2023/10/27 02:27:03;;;;;;;0.30;0.30;;;18.30;74.30;;;;;;6178792;23;20164;-87
2023/10/27 02:29:34;;;;;;;0.20;0.20;;;18.30;74.50;;;;;;6178803;23;20633;-85
2023/10/27 02:32:04;;;;;;;2.93;1.40;;;18.30;74.50;;;;;;6179061;23;20174;-87
2023/10/27 02:34:33;;;;;;;0.40;0.40;;;18.30;74.60;;;;;;6176200;23;20279;-88
2023/10/27 02:37:05;;;;;;;0.93;0.93;;;18.30;74.40;;;;;;6180536;23;20172;-87
2023/10/27 02:39:34;;;;;;;0.50;0.50;;;18.30;74.50;;;;;;6181306;23;20218;-86
2023/10/27 02:42:02;;;;;;;0.60;0.60;;;18.30;74.40;;;;;;6179030;23;20171;-88
2023/10/27 02:44:31;;;;;;;1.27;0.90;;;18.30;74.60;;;;;;6179395;23;20182;-86
2023/10/27 02:47:00;;;;;;;2.70;0.73;;;18.30;74.60;;;;;;6179207;23;20688;-87
2023/10/27 02:49:33;;;;;;;3.30;1.90;;;18.30;74.90;;;;;;6180581;23;20168;-88
2023/10/27 02:52:04;;;;;;;0.73;0.50;;;18.30;74.80;;;;;;6178955;23;20167;-86
2023/10/27 02:54:34;;;;;;;0.30;0.30;;;18.30;75.00;;;;;;6178760;23;20200;-87
2023/10/27 02:57:06;;;;;;;0.30;0.30;;;18.30;74.90;;;;;;6179100;23;20249;-86
2023/10/27 02:59:35;;;;;;;1.07;0.70;;;18.30;74.70;;;;;;6179451;23;20175;-85
2023/10/27 03:02:05;;;;;;;0.73;0.73;;;18.30;74.80;;;;;;6180657;23;20168;-85
2023/10/27 03:04:37;;;;;;;0.73;0.73;;;18.30;74.70;;;;;;6181185;23;20616;-87
2023/10/27 03:07:06;;;;;;;0.67;0.67;;;18.30;75.50;;;;;;6180443;23;20168;-86
2023/10/27 03:09:34;;;;;;;0.40;0.40;;;18.30;74.80;;;;;;6180329;23;20187;-85
2023/10/27 03:12:03;;;;;;;2.73;0.67;;;18.30;74.80;;;;;;6179750;23;20226;-87
2023/10/27 03:14:31;;;;;;;0.50;0.50;;;18.20;74.70;;;;;;6182209;23;20195;-87
2023/10/27 03:17:00;;;;;;;0.70;0.70;;;18.30;74.80;;;;;;6179875;23;20175;-86
2023/10/27 03:19:29;;;;;;;0.83;0.50;;;18.20;74.80;;;;;;6177947;23;20262;-87
2023/10/27 03:21:59;;;;;;;0.63;0.63;;;18.20;74.80;;;;;;6178263;23;20196;-87
2023/10/27 03:24:27;;;;;;;0.40;0.40;;;18.20;74.70;;;;;;6180332;23;20203;-84
2023/10/27 03:26:56;;;;;;;0.50;0.50;;;18.20;74.70;;;;;;6180570;23;20171;-85
2023/10/27 03:29:27;;;;;;;0.30;0.30;;;18.20;74.90;;;;;;6179101;23;20606;-87
2023/10/27 03:31:56;;;;;;;0.70;0.37;;;18.20;74.80;;;;;;6176646;23;20533;-85
2023/10/27 03:34:26;;;;;;;0.40;0.40;;;18.20;74.80;;;;;;6175147;23;20195;-86
2023/10/27 03:36:54;;;;;;;0.60;0.60;;;18.20;74.80;;;;;;6175405;23;20172;-86
2023/10/27 03:39:25;;;;;;;0.53;0.53;;;18.20;75.00;;;;;;6177824;23;20168;-87
2023/10/27 03:41:54;;;;;;;0.50;0.50;;;18.20;75.10;;;;;;6179041;23;20188;-86
2023/10/27 03:44:23;;;;;;;0.33;0.33;;;18.10;75.20;;;;;;6178426;23;20242;-87
2023/10/27 03:46:52;;;;;;;1.13;0.60;;;18.10;75.00;;;;;;6176394;23;20236;-85
2023/10/27 03:49:21;;;;;;;0.70;0.63;;;18.10;75.00;;;;;;6177875;23;20202;-85
2023/10/27 03:51:50;;;;;;;0.70;0.70;;;18.10;74.90;;;;;;6178127;23;20183;-87
2023/10/27 03:54:19;;;;;;;0.90;0.90;;;18.10;74.80;;;;;;6175929;23;20203;-85
2023/10/27 03:56:49;;;;;;;2.17;1.70;;;18.10;74.90;;;;;;6177320;23;20183;-87
2023/10/27 03:59:19;;;;;;;0.87;0.87;;;18.10;75.00;;;;;;6178424;23;20275;-86
2023/10/27 04:01:48;;;;;;;3.07;1.40;;;18.00;75.00;;;;;;6178496;23;20170;-87
2023/10/27 04:04:17;;;;;;;0.30;0.30;;;18.00;74.90;;;;;;6178753;23;20167;-82
2023/10/27 04:06:50;;;;;;;0.97;0.97;;;18.00;75.20;;;;;;6177871;23;20266;-86
2023/10/27 04:10:05;;;;;;;7.97;1.90;;;18.00;75.50;;;;;;6177309;23;20203;-87
2023/10/27 04:13:00;;;;;;;0.73;0.60;;;17.90;75.40;;;;;;6091771;23;20257;-89
2023/10/27 04:15:33;;;;;;;2.50;0.60;;;17.90;75.40;;;;;;6181614;23;20456;-87
2023/10/27 04:30:46;;;;;;;;;;;;;;;;;;;;;
2023/10/27 04:36:04;;;;;;;0.77;0.77;;;17.80;75.70;;;;;;6210672;23;20207;-87
2023/10/27 04:38:33;;;;;;;2.40;1.00;;;17.80;75.90;;;;;;6209783;23;20163;-89
2023/10/27 04:41:02;;;;;;;1.27;1.17;;;17.70;76.00;;;;;;6211169;23;20221;-87
2023/10/27 04:43:33;;;;;;;1.50;1.40;;;17.70;76.20;;;;;;6210764;23;20166;-88
2023/10/27 04:46:04;;;;;;;0.93;0.80;;;17.70;76.40;;;;;;6209135;23;20174;-85
2023/10/27 04:48:33;;;;;;;1.43;0.80;;;17.70;76.60;;;;;;6209238;23;20245;-87
2023/10/27 04:51:09;;;;;;;0.80;0.50;;;17.60;76.60;;;;;;6211209;23;20636;-88
2023/10/27 08:14:04;;;;;;;1.05;0.65;;;20.30;74.90;;;;;;6170005;23;21530;31
2023/10/27 08:37:34;;;;;;;0.68;0.68;;;20.40;73.90;;;;;;6029654;23;20172;-90
2023/10/27 08:44:12;;;;;;;0.82;0.80;;;20.50;74.10;;;;;;6021424;23;20514;-92
2023/10/27 08:46:45;;;;;;;0.20;0.20;;;20.60;74.10;;;;;;6106896;23;20232;-90
2023/10/27 08:49:15;;;;;;;2.42;1.02;;;20.60;74.20;;;;;;6109494;23;20174;-88
2023/10/27 08:51:59;;;;;;;0.35;0.35;;;20.70;74.30;;;;;;6111779;23;20232;-89
2023/10/27 08:54:41;;;;;;;0.77;0.68;;;20.80;74.30;;;;;;6111973;23;20176;-89
2023/10/27 08:57:10;;;;;;;1.75;0.93;;;20.80;74.30;;;;;;6112791;23;20169;-88
2023/10/27 08:59:50;;;;;;;0.43;0.40;;;20.90;74.30;;;;;;6113451;23;20222;-89
2023/10/27 09:02:30;;;;;;;0.40;0.40;;;21.00;74.40;;;;;;6045717;23;20197;-88
2023/10/27 09:05:04;;;;;;;1.63;0.77;;;21.10;74.30;;;;;;6091496;23;20220;-86
2023/10/27 09:07:33;;;;;;;0.40;0.40;;;21.10;74.10;;;;;;6092416;23;20256;-88
2023/10/27 09:10:03;;;;;;;1.10;0.93;;;21.20;74.10;;;;;;6091998;23;20213;-89
2023/10/27 09:12:36;;;;;;;7.32;1.40;;;21.20;74.00;;;;;;6093599;23;20184;-88
2023/10/27 09:15:06;;;;;;;1.17;1.08;;;21.40;73.80;;;;;;6093326;23;20190;-89
2023/10/27 09:17:51;;;;;;;0.57;0.57;;;21.40;73.80;;;;;;6092473;23;20170;-89
2023/10/27 09:20:26;;;;;;;0.38;0.38;;;21.50;73.70;;;;;;6112951;23;20178;-91
2023/10/27 09:23:00;;;;;;;2.92;0.70;;;21.60;73.70;;;;;;6213501;23;20187;-88
2023/10/27 09:25:38;;;;;;;1.55;1.05;;;21.70;73.40;;;;;;6211563;23;20686;-88
2023/10/27 09:28:13;;;;;;;0.55;0.55;;;21.80;73.20;;;;;;6214259;23;20509;-89
2023/10/27 09:30:44;;;;;;;0.57;0.57;;;21.90;73.10;;;;;;6215511;23;20166;-88
2023/10/27 09:33:17;;;;;;;0.65;0.65;;;21.90;73.10;;;;;;6213304;23;20186;-89
2023/10/27 09:35:48;;;;;;;0.60;0.60;;;22.10;73.30;;;;;;6214016;23;20197;-88
2023/10/27 09:38:17;;;;;;;1.20;1.08;;;22.20;73.30;;;;;;6216128;23;20278;-90
2023/10/27 09:40:47;;;;;;;0.77;0.65;;;22.20;72.60;;;;;;6216125;23;20620;-90
2023/10/27 09:43:19;;;;;;;0.60;0.60;;;22.20;72.20;;;;;;6216028;23;20601;-90
2023/10/27 09:45:53;;;;;;;0.95;0.88;;;22.30;72.20;;;;;;6215353;23;20503;-89
2023/10/27 09:48:27;;;;;;;0.50;0.50;;;22.40;72.00;;;;;;6213905;23;20632;-89
2023/10/27 09:51:04;;;;;;;0.47;0.47;;;22.50;72.20;;;;;;6212892;23;20177;-89
2023/10/27 09:56:03;;;;;;;0.30;0.30;;;22.70;71.80;;;;;;6214473;23;20202;-88
2023/10/27 09:58:35;;;;;;;0.85;0.40;;;22.70;71.70;;;;;;6215008;23;20994;-90
2023/10/27 10:01:16;;;;;;;0.20;0.20;;;22.80;71.70;;;;;;6213939;23;20246;-89
2023/10/27 10:03:45;;;;;;;0.38;0.30;;;22.80;71.70;;;;;;6212863;23;20911;-87
2023/10/27 10:06:18;;;;;;;2.65;1.25;;;22.90;71.40;;;;;;6212497;23;20633;-88
2023/10/27 10:09:14;;;;;;;0.50;0.50;;;23.00;71.40;;;;;;6216311;23;20161;-89
2023/10/27 10:12:01;;;;;;;1.58;1.25;;;23.10;70.60;;;;;;6214269;23;20175;-87
2023/10/27 10:14:51;;;;;;;0.73;0.73;;;23.10;70.30;;;;;;6210148;23;20179;-87
2023/10/27 10:17:41;;;;;;;0.30;0.30;;;23.30;70.40;;;;;;6213046;23;20198;-87
2023/10/27 10:27:23;;;;;;;0.40;0.40;;;23.40;69.70;;;;;;6094928;23;20208;-87
2023/10/27 10:30:20;;;;;;;2.28;1.02;;;23.40;69.20;;;;;;6171715;23;20171;-87
2023/10/27 10:32:49;;;;;;;0.77;0.77;;;23.40;68.90;;;;;;6210895;23;20167;-86
2023/10/27 10:35:37;;;;;;;0.68;0.68;;;23.50;69.10;;;;;;6209887;23;20174;-84
2023/10/27 10:38:39;;;;;;;1.70;0.82;;;23.60;69.40;;;;;;6209768;23;20598;-89
2023/10/27 10:41:08;;;;;;;1.05;0.82;;;23.60;69.10;;;;;;6211177;23;20680;-88
2023/10/27 10:44:08;;;;;;;1.88;0.47;;;23.70;69.10;;;;;;6211733;23;20251;-87
2023/10/27 10:46:43;;;;;;;0.50;0.50;;;23.70;69.10;;;;;;6208805;23;20167;-85
2023/10/27 10:49:13;;;;;;;0.52;0.52;;;23.80;68.60;;;;;;6211057;23;20175;-86
2023/10/27 10:51:43;;;;;;;0.65;0.47;;;23.80;68.40;;;;;;6182718;23;20175;-86
2023/10/27 10:54:12;;;;;;;0.38;0.38;;;23.80;68.70;;;;;;6209009;23;20199;-86
2023/10/27 10:56:42;;;;;;;0.90;0.50;;;23.90;68.00;;;;;;6208827;23;20726;-88
2023/10/27 10:59:20;;;;;;;0.50;0.35;;;24.00;68.20;;;;;;6211680;23;20258;-85
2023/10/27 11:02:00;;;;;;;0.65;0.65;;;24.10;67.90;;;;;;6209424;23;20167;-85
2023/10/27 11:04:30;;;;;;;0.35;0.35;;;24.10;67.50;;;;;;6207660;23;20700;-87
2023/10/27 11:07:03;;;;;;;0.25;0.25;;;24.20;67.50;;;;;;6210013;23;20175;-85
2023/10/27 11:09:32;;;;;;;0.32;0.32;;;24.30;67.50;;;;;;6211282;23;20206;-86
2023/10/27 11:12:02;;;;;;;0.45;0.43;;;24.40;67.60;;;;;;6209785;23;20254;-87
2023/10/27 11:14:40;;;;;;;0.20;0.20;;;24.50;67.50;;;;;;6207034;23;20179;-86
2023/10/27 11:17:12;;;;;;;1.17;0.52;;;24.60;67.50;;;;;;6210355;23;20226;-87
2023/10/27 11:19:54;;;;;;;0.47;0.47;;;24.70;67.50;;;;;;6207854;23;20793;-88
2023/10/27 11:22:27;;;;;;;2.63;1.42;;;24.80;67.20;;;;;;6209866;23;20171;-86
2023/10/27 11:24:56;;;;;;;4.13;1.60;;;24.80;66.90;;;;;;6209130;23;20488;-87
2023/10/27 11:27:26;;;;;;;0.43;0.43;;;24.80;65.30;;;;;;6209930;23;20175;-88
2023/10/27 11:30:00;;;;;;;0.35;0.35;;;24.90;65.50;;;;;;6210731;23;20610;-88
2023/10/27 11:32:31;;;;;;;0.60;0.60;;;25.00;65.50;;;;;;6212930;23;20679;-88
2023/10/27 11:35:01;;;;;;;0.20;0.20;;;25.00;65.50;;;;;;6210134;23;20483;-88
2023/10/27 11:37:30;;;;;;;0.45;0.43;;;25.10;65.40;;;;;;6211255;23;20249;-88
2023/10/27 11:40:13;;;;;;;0.40;0.40;;;25.20;65.50;;;;;;6211124;23;20238;-88
2023/10/27 11:42:42;;;;;;;0.28;0.28;;;25.20;65.40;;;;;;6208947;23;20174;-87
2023/10/27 11:45:11;;;;;;;0.20;0.20;;;25.20;64.10;;;;;;6211813;23;20225;-86
2023/10/27 11:47:41;;;;;;;0.60;0.60;;;25.30;64.10;;;;;;6210755;23;20171;-88
2023/10/27 11:50:11;;;;;;;1.85;0.65;;;25.30;64.40;;;;;;6211270;23;20246;-87
2023/10/27 11:52:40;;;;;;;0.25;0.25;;;25.30;64.10;;;;;;6211082;23;20175;-87
2023/10/27 11:55:09;;;;;;;0.30;0.30;;;25.30;64.10;;;;;;6210529;23;20198;-87
2023/10/27 11:57:39;;;;;;;0.52;0.52;;;25.40;64.10;;;;;;6211352;23;20194;-88
2023/10/27 12:00:09;;;;;;;0.30;0.30;;;25.40;64.20;;;;;;6212608;23;20248;-88
2023/10/27 12:02:37;;;;;;;2.42;0.70;;;25.40;63.20;;;;;;6211921;23;20169;-88
2023/10/27 12:05:10;;;;;;;0.28;0.28;;;25.40;63.60;;;;;;6212487;23;20198;-88
2023/10/27 12:07:39;;;;;;;0.57;0.57;;;25.40;63.10;;;;;;6212268;23;20167;-88
2023/10/27 12:10:09;;;;;;;0.63;0.63;;;25.40;62.90;;;;;;6208807;23;20187;-87
2023/10/27 12:12:40;;;;;;;0.50;0.50;;;25.40;63.20;;;;;;6209875;23;20167;-87
2023/10/27 12:15:14;;;;;;;0.35;0.35;;;25.40;63.50;;;;;;6211154;23;20255;-86
2023/10/27 12:17:44;;;;;;;0.20;0.20;;;25.40;63.40;;;;;;6210682;23;20248;-88
2023/10/27 12:20:17;;;;;;;1.08;0.63;;;25.40;62.90;;;;;;6211867;23;20198;-87
2023/10/27 12:22:46;;;;;;;0.20;0.20;;;25.40;63.20;;;;;;6210234;23;20163;-86
2023/10/27 12:25:16;;;;;;;0.40;0.40;;;25.40;63.10;;;;;;6209597;23;20167;-86
2023/10/27 12:27:44;;;;;;;0.40;0.40;;;25.40;63.30;;;;;;6211215;23;20171;-88
2023/10/27 12:30:14;;;;;;;0.60;0.60;;;25.40;63.40;;;;;;6211687;23;20174;-89
2023/10/27 12:32:44;;;;;;;0.40;0.40;;;25.40;63.40;;;;;;6208514;23;20613;-87
2023/10/27 12:35:15;;;;;;;0.40;0.40;;;25.50;63.60;;;;;;6211047;23;20217;-86
2023/10/27 12:37:45;;;;;;;0.40;0.40;;;25.40;63.00;;;;;;6207713;23;20199;-88
2023/10/27 12:40:15;;;;;;;0.30;0.30;;;25.40;62.90;;;;;;6212192;23;20242;-88
2023/10/27 12:42:44;;;;;;;0.20;0.20;;;25.40;61.40;;;;;;6209942;23;20313;-85
2023/10/27 12:45:13;;;;;;;0.35;0.32;;;25.40;59.80;;;;;;6209034;23;20171;-88
2023/10/27 12:47:43;;;;;;;0.20;0.20;;;25.40;59.10;;;;;;6209250;23;20194;-86
2023/10/27 12:50:15;;;;;;;0.20;0.20;;;25.40;59.30;;;;;;6211965;23;20169;-87
2023/10/27 12:52:44;;;;;;;0.57;0.57;;;25.40;59.60;;;;;;6212161;23;20179;-86
2023/10/27 12:55:15;;;;;;;0.35;0.35;;;25.40;59.90;;;;;;6211631;23;20191;-88
2023/10/27 12:57:45;;;;;;;1.75;1.23;;;25.40;59.70;;;;;;6211836;23;20198;-88
2023/10/27 13:00:20;;;;;;;0.30;0.30;;;25.40;59.30;;;;;;6215635;23;20613;-88
2023/10/27 13:02:56;;;;;;;0.30;0.28;;;25.40;59.50;;;;;;6214026;23;20185;-86
2023/10/27 13:05:29;;;;;;;4.50;0.52;;;25.40;59.40;;;;;;6214450;23;20190;-88
2023/10/27 13:08:20;;;;;;;0.20;0.20;;;25.40;59.50;;;;;;6215479;23;20167;-90
2023/10/27 13:11:18;;;;;;;0.22;0.22;;;25.40;59.50;;;;;;6218357;23;20167;-88
2023/10/27 13:13:47;;;;;;;0.40;0.40;;;25.40;59.40;;;;;;6213211;23;20173;-89
2023/10/27 13:16:38;;;;;;;0.40;0.40;;;25.40;59.50;;;;;;6215586;23;20171;-89
2023/10/27 13:19:09;;;;;;;0.55;0.40;;;25.40;59.60;;;;;;6215966;23;20250;-87
2023/10/27 13:21:44;;;;;;;0.20;0.20;;;25.40;59.50;;;;;;6216293;23;20171;-89
2023/10/27 13:24:15;;;;;;;1.65;0.57;;;25.30;58.70;;;;;;6214070;23;20545;-88
2023/10/27 13:26:45;;;;;;;0.25;0.25;;;25.30;58.80;;;;;;6215389;23;20171;-88
2023/10/27 13:29:17;;;;;;;9.63;1.90;;;25.40;59.00;;;;;;6212439;23;20167;-87
2023/10/27 13:31:47;;;;;;;0.57;0.55;;;25.30;59.10;;;;;;6213654;23;20241;-88
2023/10/27 13:34:16;;;;;;;1.65;0.75;;;25.30;58.90;;;;;;6211890;23;20235;-88
2023/10/27 13:36:49;;;;;;;1.13;0.88;;;25.30;59.00;;;;;;6216324;23;20171;-90
2023/10/27 13:39:24;;;;;;;0.30;0.30;;;25.30;58.90;;;;;;6212827;23;20617;-88
2023/10/27 13:41:54;;;;;;;1.02;1.00;;;25.30;59.60;;;;;;6214927;23;20585;-88
2023/10/27 13:44:27;;;;;;;0.75;0.75;;;25.30;58.90;;;;;;6213673;23;20164;-89
2023/10/27 13:47:00;;;;;;;0.30;0.30;;;25.30;59.00;;;;;;6213526;23;20217;-89
2023/10/27 13:49:34;;;;;;;0.32;0.28;;;25.20;58.70;;;;;;6189254;23;20628;-90
2023/10/27 13:52:06;;;;;;;0.30;0.30;;;25.20;58.70;;;;;;6214518;23;20163;-88
2023/10/27 13:54:36;;;;;;;0.20;0.20;;;25.20;58.80;;;;;;6213610;23;20199;-88
2023/10/27 13:57:08;;;;;;;0.40;0.40;;;25.20;58.80;;;;;;6213428;23;20186;-88
2023/10/27 13:59:40;;;;;;;0.63;0.63;;;25.20;58.80;;;;;;6214033;23;20173;-87
2023/10/27 14:02:15;;;;;;;0.30;0.30;;;25.20;59.20;;;;;;6212101;23;20217;-89
2023/10/27 14:04:43;;;;;;;0.20;0.20;;;25.20;59.20;;;;;;6209715;23;20177;-88
2023/10/27 14:07:16;;;;;;;0.40;0.40;;;25.20;59.40;;;;;;6210221;23;20185;-87
2023/10/27 14:09:45;;;;;;;2.35;1.00;;;25.20;59.60;;;;;;6210163;23;20178;-88
2023/10/27 14:12:15;;;;;;;0.20;0.20;;;25.10;59.60;;;;;;6210188;23;20632;-87
2023/10/27 14:14:43;;;;;;;0.32;0.32;;;25.10;59.80;;;;;;6210537;23;20544;-89
2023/10/27 14:17:12;;;;;;;0.68;0.30;;;25.10;59.80;;;;;;6212292;23;20174;-88
2023/10/27 14:19:41;;;;;;;2.10;0.77;;;25.10;60.10;;;;;;6210545;23;20163;-87
2023/10/27 14:22:09;;;;;;;0.70;0.70;;;25.00;60.50;;;;;;6209638;23;20174;-86
2023/10/27 14:24:40;;;;;;;0.65;0.40;;;25.00;60.60;;;;;;6209695;23;20246;-83
2023/10/27 14:27:08;;;;;;;2.05;0.38;;;25.00;60.80;;;;;;6210455;23;20171;-87
2023/10/27 14:29:38;;;;;;;1.05;0.73;;;24.90;60.90;;;;;;6205567;23;20636;-86
2023/10/27 14:32:10;;;;;;;0.47;0.47;;;24.90;61.10;;;;;;6209482;23;20163;-87
2023/10/27 14:34:40;;;;;;;3.20;1.27;;;24.80;61.30;;;;;;6210588;23;20570;-87
2023/10/27 14:37:11;;;;;;;0.32;0.32;;;24.80;61.40;;;;;;6209203;23;20167;-87
2023/10/27 14:39:42;;;;;;;1.08;0.73;;;24.80;61.60;;;;;;6207875;23;20205;-87
2023/10/27 14:42:14;;;;;;;1.10;0.80;;;24.70;61.70;;;;;;6208956;23;20556;-86
2023/10/27 14:44:43;;;;;;;0.30;0.30;;;24.70;62.70;;;;;;6207145;23;20163;-86
2023/10/27 14:47:12;;;;;;;0.70;0.70;;;24.60;62.30;;;;;;6211988;23;20656;-85
2023/10/27 14:49:41;;;;;;;0.85;0.40;;;24.60;62.40;;;;;;6212201;23;20177;-88
2023/10/27 14:52:10;;;;;;;4.03;1.50;;;24.50;62.30;;;;;;6208989;23;20167;-86
2023/10/27 14:54:50;;;;;;;0.70;0.63;;;24.50;62.60;;;;;;6210655;23;20280;-87
2023/10/27 14:57:20;;;;;;;1.55;1.10;;;24.40;62.70;;;;;;6208428;23;20168;-87
2023/10/27 14:59:54;;;;;;;0.50;0.50;;;24.30;62.90;;;;;;6208464;23;20310;-88
2023/10/27 15:02:25;;;;;;;0.47;0.47;;;24.30;62.90;;;;;;6210285;23;20249;-87
2023/10/27 15:04:54;;;;;;;1.98;1.40;;;24.30;63.10;;;;;;6213159;23;20205;-86
2023/10/27 15:07:23;;;;;;;8.23;1.15;;;24.20;63.50;;;;;;6209841;23;20167;-86
2023/10/27 15:09:54;;;;;;;0.40;0.40;;;24.10;63.60;;;;;;6206757;23;20214;-87
2023/10/27 15:12:22;;;;;;;0.45;0.43;;;24.00;63.70;;;;;;6206200;23;20167;-87
2023/10/27 15:14:53;;;;;;;0.65;0.65;;;24.00;63.80;;;;;;6210685;23;20625;-88
2023/10/27 15:17:21;;;;;;;0.38;0.38;;;23.90;63.90;;;;;;6209613;23;20169;-87
2023/10/27 15:19:53;;;;;;;0.47;0.40;;;23.90;64.10;;;;;;6209211;23;20202;-88
2023/10/27 15:22:26;;;;;;;0.35;0.35;;;23.80;64.20;;;;;;6209941;23;20171;-88
2023/10/27 15:24:56;;;;;;;0.50;0.50;;;23.70;64.30;;;;;;6212434;23;20457;-91
2023/10/27 15:27:25;;;;;;;0.82;0.82;;;23.70;64.60;;;;;;6210574;23;20719;-87
2023/10/27 15:29:56;;;;;;;0.88;0.88;;;23.60;64.70;;;;;;6210051;23;20182;-89
2023/10/27 15:32:26;;;;;;;1.05;0.63;;;23.60;64.80;;;;;;6212124;23;20167;-89
2023/10/27 15:35:01;;;;;;;0.90;0.60;;;23.60;64.90;;;;;;6211977;23;20209;-89
2023/10/27 15:37:35;;;;;;;0.90;0.73;;;23.50;64.90;;;;;;6210921;23;20549;-89
2023/10/27 15:40:14;;;;;;;1.58;0.95;;;23.50;65.00;;;;;;6209939;23;20675;-91
2023/10/27 15:42:46;;;;;;;1.23;1.13;;;23.40;65.40;;;;;;6210576;23;20546;-88
2023/10/27 15:45:19;;;;;;;0.57;0.57;;;23.40;65.40;;;;;;6211382;23;20201;-87
2023/10/27 15:47:48;;;;;;;0.80;0.80;;;23.30;65.50;;;;;;6208358;23;20202;-89
2023/10/27 15:50:19;;;;;;;4.43;2.15;;;23.30;65.60;;;;;;6208230;23;20290;-87
2023/10/27 16:01:41;;;;;;;;;;;;;;;;;;;;;
2023/10/27 16:23:55;;;;;;;0.35;0.35;;;23.10;66.10;;;;;;6004318;23;20183;-86
2023/10/27 16:26:23;;;;;;;1.80;0.88;;;23.00;66.30;;;;;;6027844;23;20173;-87
2023/10/27 16:28:54;;;;;;;0.95;0.70;;;23.00;66.30;;;;;;6119819;23;20169;-87
2023/10/27 16:31:22;;;;;;;0.60;0.60;;;22.90;66.30;;;;;;6157710;23;20170;-86
2023/10/27 16:33:53;;;;;;;0.40;0.40;;;22.90;66.40;;;;;;6210063;23;20163;-90
2023/10/27 16:36:21;;;;;;;1.02;0.70;;;22.90;67.40;;;;;;6206344;23;20166;-88
2023/10/27 16:39:01;;;;;;;4.53;0.80;;;22.80;66.50;;;;;;6202927;23;20214;-87
2023/10/27 16:41:30;;;;;;;1.38;1.15;;;22.80;66.60;;;;;;6207224;23;20171;-87
2023/10/27 16:43:59;;;;;;;1.17;0.60;;;22.80;66.70;;;;;;6212570;23;20167;-87
2023/10/27 16:46:27;;;;;;;3.33;0.70;;;22.80;66.80;;;;;;6213095;23;20182;-87
2023/10/27 16:48:58;;;;;;;0.80;0.57;;;22.70;66.90;;;;;;6211696;23;20170;-88
2023/10/27 16:51:27;;;;;;;0.77;0.50;;;22.70;67.00;;;;;;6209826;23;20625;-88
2023/10/27 16:53:57;;;;;;;0.80;0.73;;;22.70;67.00;;;;;;6209462;23;20250;-88
2023/10/27 16:56:30;;;;;;;1.35;1.05;;;22.70;67.10;;;;;;6208432;23;20614;-86
2023/10/27 16:58:59;;;;;;;0.90;0.38;;;22.70;67.00;;;;;;6207118;23;20187;-87
2023/10/27 17:01:28;;;;;;;1.58;1.48;;;22.70;67.00;;;;;;6210676;23;20206;-89
2023/10/27 17:03:57;;;;;;;2.13;1.23;;;22.70;67.60;;;;;;6209893;23;20170;-88
2023/10/27 17:06:27;;;;;;;0.93;0.93;;;22.70;67.50;;;;;;6209539;23;20163;-86
2023/10/27 17:09:01;;;;;;;0.47;0.43;;;22.60;67.60;;;;;;6209217;23;20190;-90
2023/10/27 17:11:37;;;;;;;0.47;0.47;;;22.60;67.70;;;;;;6209181;23;20624;-86
2023/10/27 17:14:06;;;;;;;1.20;0.80;;;22.60;67.80;;;;;;6209886;23;20162;-86
2023/10/27 17:16:35;;;;;;;1.20;0.88;;;22.60;68.10;;;;;;6210269;23;20242;-88
2023/10/27 17:19:04;;;;;;;0.90;0.85;;;22.50;68.80;;;;;;6209182;23;20207;-88
2023/10/27 17:21:37;;;;;;;0.43;0.43;;;22.50;68.80;;;;;;6209115;23;20267;-85
2023/10/27 17:24:24;;;;;;;0.57;0.45;;;22.50;68.80;;;;;;6210545;23;20174;-88
2023/10/27 17:27:06;;;;;;;;;;;;;;;;;;;;;
2023/10/27 17:30:09;;;;;;;1.17;0.88;;;22.40;68.80;;;;;;6208252;23;20178;-87
2023/10/27 17:33:15;;;;;;;0.68;0.63;;;22.40;69.20;;;;;;6213107;23;20194;-90
2023/10/27 17:36:14;;;;;;;2.17;0.52;;;22.30;69.10;;;;;;6196863;23;20198;-88
2023/10/27 17:39:14;;;;;;;0.85;0.73;;;22.30;70.00;;;;;;6203938;23;20259;-87
2023/10/27 17:41:52;;;;;;;4.15;1.30;;;22.30;70.00;;;;;;6212545;23;20172;-86
2023/10/27 17:44:22;;;;;;;1.65;1.13;;;22.20;70.00;;;;;;6225269;23;20823;-88
2023/10/27 17:47:14;;;;;;;0.85;0.75;;;22.20;70.30;;;;;;6229405;23;20239;-85
2023/10/27 17:49:56;;;;;;;1.15;0.82;;;22.20;70.30;;;;;;6227750;23;20171;-89
2023/10/27 17:52:51;;;;;;;2.45;2.08;;;22.20;70.50;;;;;;6227932;23;20558;-87
2023/10/27 17:55:30;;;;;;;2.10;1.67;;;22.20;70.40;;;;;;6231104;23;20171;-88
2023/10/27 17:58:46;;;;;;;1.05;0.70;;;22.10;70.60;;;;;;6229062;23;20205;-87